メインページ
METAR-TAF:

METAR-TAF

空港 :

クウェート国際空港

クウェート, クウェート

緯度: 29-13N, 経度: 047-59E, 海抜: 55m

現時点の気象観測

当レポートは34分前の02:00(UTC)に作成
南/南西の風 4kt
気温 31°C
湿度 16%
気圧 994 hPa
視程10km以上
1,500メートル以下は雲なし、積乱雲なし

METAR: OKBK 070200Z 21004KT CAVOK 31/02 Q0994 NOSIG

時間: 05:34 (02:34 UTC)

予報

当レポートは3時間49分前の22:45(UTC)に作成
予報は07日の 00時(UTC)から 08日の 06時(UTC)まで有効
変向風 3kt
視程: 7000m

TAF: OKBK 062245Z 0700/0806 VRB03KT 7000 NSC

4,000以上の空港の気象観測と天気予報(METAR報とTAF報)

利用可能な観測所は地図上に黄色い丸と赤い丸で示す。

丸の上にカーソルを重ねると観測所名を参照できる。

次にクリックすると気象観測と天気予報を参照できる。

マップの切り替え:黒色「×」印の緑ボタンをクリックして拡大、「-」印の緑ボタンをクリックして縮小、緑色の三角印をクリックして隣りの地図に切り替え


METAR-TAF: